sensor_id;sensor_type;location;lat;lon;timestamp;P1;durP1;ratioP1;P2;durP2;ratioP2
17253;SDS011;32542;52.832;13.816;2022-11-20T00:01:03;7.45;;;5.13;;
17253;SDS011;32542;52.832;13.816;2022-11-20T00:04:08;7.65;;;5.20;;
17253;SDS011;32542;52.832;13.816;2022-11-20T00:07:14;7.18;;;4.68;;
17253;SDS011;32542;52.832;13.816;2022-11-20T00:10:17;6.78;;;4.22;;
17253;SDS011;32542;52.832;13.816;2022-11-20T00:13:20;6.57;;;4.90;;
17253;SDS011;32542;52.832;13.816;2022-11-20T00:16:23;5.63;;;4.60;;
17253;SDS011;32542;52.832;13.816;2022-11-20T00:19:27;6.88;;;4.50;;
17253;SDS011;32542;52.832;13.816;2022-11-20T00:22:31;6.95;;;4.70;;
17253;SDS011;32542;52.832;13.816;2022-11-20T00:25:34;7.05;;;5.20;;
17253;SDS011;32542;52.832;13.816;2022-11-20T00:28:38;6.57;;;4.65;;
17253;SDS011;32542;52.832;13.816;2022-11-20T00:31:41;6.47;;;4.45;;
17253;SDS011;32542;52.832;13.816;2022-11-20T00:34:44;6.80;;;4.70;;
17253;SDS011;32542;52.832;13.816;2022-11-20T00:37:48;6.45;;;4.63;;
17253;SDS011;32542;52.832;13.816;2022-11-20T00:40:54;5.80;;;4.40;;
17253;SDS011;32542;52.832;13.816;2022-11-20T00:43:58;7.18;;;4.68;;
17253;SDS011;32542;52.832;13.816;2022-11-20T00:47:01;6.50;;;4.68;;
17253;SDS011;32542;52.832;13.816;2022-11-20T00:50:04;6.88;;;4.97;;
17253;SDS011;32542;52.832;13.816;2022-11-20T00:53:09;6.60;;;4.95;;
17253;SDS011;32542;52.832;13.816;2022-11-20T00:56:12;6.45;;;4.57;;
17253;SDS011;32542;52.832;13.816;2022-11-20T00:59:16;5.57;;;4.38;;
17253;SDS011;32542;52.832;13.816;2022-11-20T01:02:20;5.68;;;4.40;;
17253;SDS011;32542;52.832;13.816;2022-11-20T01:05:23;6.63;;;4.25;;
17253;SDS011;32542;52.832;13.816;2022-11-20T01:08:29;6.90;;;4.35;;
17253;SDS011;32542;52.832;13.816;2022-11-20T01:11:34;6.68;;;4.30;;
17253;SDS011;32542;52.832;13.816;2022-11-20T01:14:38;6.97;;;4.90;;
17253;SDS011;32542;52.832;13.816;2022-11-20T01:17:41;6.18;;;4.70;;
17253;SDS011;32542;52.832;13.816;2022-11-20T01:20:44;7.00;;;4.72;;
17253;SDS011;32542;52.832;13.816;2022-11-20T01:23:49;6.32;;;4.35;;
17253;SDS011;32542;52.832;13.816;2022-11-20T01:26:52;6.63;;;4.20;;
17253;SDS011;32542;52.832;13.816;2022-11-20T01:29:55;6.53;;;4.60;;
17253;SDS011;32542;52.832;13.816;2022-11-20T01:33:01;5.18;;;4.10;;
17253;SDS011;32542;52.832;13.816;2022-11-20T01:36:05;5.18;;;4.07;;
17253;SDS011;32542;52.832;13.816;2022-11-20T01:39:12;8.60;;;4.40;;
17253;SDS011;32542;52.832;13.816;2022-11-20T01:42:16;6.45;;;4.65;;
17253;SDS011;32542;52.832;13.816;2022-11-20T01:49:15;5.63;;;4.25;;
17253;SDS011;32542;52.832;13.816;2022-11-20T01:52:23;7.47;;;4.78;;
17253;SDS011;32542;52.832;13.816;2022-11-20T01:55:32;6.88;;;4.25;;
17253;SDS011;32542;52.832;13.816;2022-11-20T01:58:38;6.95;;;4.72;;
17253;SDS011;32542;52.832;13.816;2022-11-20T02:01:46;6.25;;;4.20;;
17253;SDS011;32542;52.832;13.816;2022-11-20T02:04:49;5.90;;;4.07;;
17253;SDS011;32542;52.832;13.816;2022-11-20T02:07:57;7.50;;;4.32;;
17253;SDS011;32542;52.832;13.816;2022-11-20T02:11:03;6.07;;;4.10;;
17253;SDS011;32542;52.832;13.816;2022-11-20T02:14:06;7.78;;;4.07;;
17253;SDS011;32542;52.832;13.816;2022-11-20T02:17:10;10.05;;;4.60;;
17253;SDS011;32542;52.832;13.816;2022-11-20T02:20:13;9.32;;;4.68;;
17253;SDS011;32542;52.832;13.816;2022-11-20T02:23:16;8.43;;;4.10;;
17253;SDS011;32542;52.832;13.816;2022-11-20T02:26:26;9.23;;;4.75;;
17253;SDS011;32542;52.832;13.816;2022-11-20T02:29:32;5.97;;;4.00;;
17253;SDS011;32542;52.832;13.816;2022-11-20T02:32:38;13.68;;;4.55;;
17253;SDS011;32542;52.832;13.816;2022-11-20T02:35:43;6.80;;;4.30;;
17253;SDS011;32542;52.832;13.816;2022-11-20T02:38:47;7.05;;;3.90;;
17253;SDS011;32542;52.832;13.816;2022-11-20T02:41:53;8.18;;;4.20;;
17253;SDS011;32542;52.832;13.816;2022-11-20T02:44:58;12.55;;;3.80;;
17253;SDS011;32542;52.832;13.816;2022-11-20T02:48:01;11.77;;;4.05;;
17253;SDS011;32542;52.832;13.816;2022-11-20T02:51:04;17.65;;;3.80;;
17253;SDS011;32542;52.832;13.816;2022-11-20T02:54:07;5.68;;;3.65;;
17253;SDS011;32542;52.832;13.816;2022-11-20T02:57:11;7.75;;;4.00;;
17253;SDS011;32542;52.832;13.816;2022-11-20T03:00:14;11.40;;;4.53;;
17253;SDS011;32542;52.832;13.816;2022-11-20T03:03:18;8.40;;;3.85;;
17253;SDS011;32542;52.832;13.816;2022-11-20T03:06:21;6.07;;;3.75;;
17253;SDS011;32542;52.832;13.816;2022-11-20T03:09:24;8.75;;;3.88;;
17253;SDS011;32542;52.832;13.816;2022-11-20T03:12:28;13.93;;;4.05;;
17253;SDS011;32542;52.832;13.816;2022-11-20T03:15:31;6.18;;;3.83;;
17253;SDS011;32542;52.832;13.816;2022-11-20T03:18:34;7.95;;;3.63;;
17253;SDS011;32542;52.832;13.816;2022-11-20T03:21:37;7.57;;;4.07;;
17253;SDS011;32542;52.832;13.816;2022-11-20T03:24:40;6.65;;;3.72;;
17253;SDS011;32542;52.832;13.816;2022-11-20T03:27:45;8.88;;;3.60;;
17253;SDS011;32542;52.832;13.816;2022-11-20T03:30:48;6.68;;;3.40;;
17253;SDS011;32542;52.832;13.816;2022-11-20T03:33:51;5.40;;;3.85;;
17253;SDS011;32542;52.832;13.816;2022-11-20T03:36:54;5.45;;;3.60;;
17253;SDS011;32542;52.832;13.816;2022-11-20T03:39:57;5.65;;;3.70;;
17253;SDS011;32542;52.832;13.816;2022-11-20T03:43:01;6.18;;;3.92;;
17253;SDS011;32542;52.832;13.816;2022-11-20T03:46:04;7.18;;;3.33;;
17253;SDS011;32542;52.832;13.816;2022-11-20T03:49:08;5.97;;;3.50;;
17253;SDS011;32542;52.832;13.816;2022-11-20T03:52:11;6.20;;;3.40;;
17253;SDS011;32542;52.832;13.816;2022-11-20T03:55:14;7.10;;;3.85;;
17253;SDS011;32542;52.832;13.816;2022-11-20T03:58:18;7.72;;;3.67;;
17253;SDS011;32542;52.832;13.816;2022-11-20T04:01:22;5.70;;;3.55;;
17253;SDS011;32542;52.832;13.816;2022-11-20T04:04:27;4.38;;;3.17;;
17253;SDS011;32542;52.832;13.816;2022-11-20T04:07:30;5.80;;;3.55;;
17253;SDS011;32542;52.832;13.816;2022-11-20T04:10:33;5.53;;;3.33;;
17253;SDS011;32542;52.832;13.816;2022-11-20T04:13:37;5.95;;;3.58;;
17253;SDS011;32542;52.832;13.816;2022-11-20T04:16:41;4.72;;;3.60;;
17253;SDS011;32542;52.832;13.816;2022-11-20T04:19:45;4.90;;;3.60;;
17253;SDS011;32542;52.832;13.816;2022-11-20T04:22:48;5.75;;;3.15;;
17253;SDS011;32542;52.832;13.816;2022-11-20T04:25:51;6.85;;;3.72;;
17253;SDS011;32542;52.832;13.816;2022-11-20T04:28:56;5.43;;;3.47;;
17253;SDS011;32542;52.832;13.816;2022-11-20T04:31:59;5.07;;;3.60;;
17253;SDS011;32542;52.832;13.816;2022-11-20T04:35:03;5.20;;;3.10;;
17253;SDS011;32542;52.832;13.816;2022-11-20T04:38:06;7.10;;;3.80;;
17253;SDS011;32542;52.832;13.816;2022-11-20T04:41:10;7.65;;;3.55;;
17253;SDS011;32542;52.832;13.816;2022-11-20T04:44:19;7.47;;;3.33;;
17253;SDS011;32542;52.832;13.816;2022-11-20T04:47:22;4.40;;;3.38;;
17253;SDS011;32542;52.832;13.816;2022-11-20T04:50:26;4.93;;;3.65;;
17253;SDS011;32542;52.832;13.816;2022-11-20T04:53:29;7.55;;;3.55;;
17253;SDS011;32542;52.832;13.816;2022-11-20T04:56:32;4.45;;;3.30;;
17253;SDS011;32542;52.832;13.816;2022-11-20T04:59:36;5.55;;;3.20;;
17253;SDS011;32542;52.832;13.816;2022-11-20T05:02:39;4.53;;;3.25;;
17253;SDS011;32542;52.832;13.816;2022-11-20T05:05:42;5.03;;;3.60;;
17253;SDS011;32542;52.832;13.816;2022-11-20T05:08:45;5.50;;;3.28;;
17253;SDS011;32542;52.832;13.816;2022-11-20T05:11:48;6.30;;;3.22;;
17253;SDS011;32542;52.832;13.816;2022-11-20T05:14:53;6.30;;;3.38;;
17253;SDS011;32542;52.832;13.816;2022-11-20T05:17:56;5.57;;;3.50;;
17253;SDS011;32542;52.832;13.816;2022-11-20T05:20:59;6.07;;;3.45;;
17253;SDS011;32542;52.832;13.816;2022-11-20T05:24:02;6.85;;;3.50;;
17253;SDS011;32542;52.832;13.816;2022-11-20T05:27:05;4.88;;;3.17;;
17253;SDS011;32542;52.832;13.816;2022-11-20T05:30:11;5.47;;;3.38;;
17253;SDS011;32542;52.832;13.816;2022-11-20T05:33:15;5.00;;;3.22;;
17253;SDS011;32542;52.832;13.816;2022-11-20T05:36:18;4.57;;;2.95;;
17253;SDS011;32542;52.832;13.816;2022-11-20T05:39:21;6.75;;;3.80;;
17253;SDS011;32542;52.832;13.816;2022-11-20T05:42:24;5.82;;;3.22;;
17253;SDS011;32542;52.832;13.816;2022-11-20T05:45:34;3.92;;;3.03;;
17253;SDS011;32542;52.832;13.816;2022-11-20T05:48:40;4.45;;;2.90;;
17253;SDS011;32542;52.832;13.816;2022-11-20T05:51:44;4.75;;;3.15;;
17253;SDS011;32542;52.832;13.816;2022-11-20T05:54:47;4.35;;;3.10;;
17253;SDS011;32542;52.832;13.816;2022-11-20T05:57:50;6.82;;;3.83;;
17253;SDS011;32542;52.832;13.816;2022-11-20T06:00:58;3.45;;;2.85;;
17253;SDS011;32542;52.832;13.816;2022-11-20T06:04:06;6.00;;;2.97;;
17253;SDS011;32542;52.832;13.816;2022-11-20T06:07:09;4.07;;;3.00;;
17253;SDS011;32542;52.832;13.816;2022-11-20T06:10:12;5.28;;;3.33;;
17253;SDS011;32542;52.832;13.816;2022-11-20T06:13:15;5.45;;;3.28;;
17253;SDS011;32542;52.832;13.816;2022-11-20T06:16:20;3.80;;;2.97;;
17253;SDS011;32542;52.832;13.816;2022-11-20T06:19:23;3.83;;;2.95;;
17253;SDS011;32542;52.832;13.816;2022-11-20T06:22:26;4.15;;;3.05;;
17253;SDS011;32542;52.832;13.816;2022-11-20T06:25:29;4.15;;;2.92;;
17253;SDS011;32542;52.832;13.816;2022-11-20T06:28:32;4.80;;;3.53;;
17253;SDS011;32542;52.832;13.816;2022-11-20T06:31:36;4.80;;;3.10;;
17253;SDS011;32542;52.832;13.816;2022-11-20T06:34:39;10.18;;;3.30;;
17253;SDS011;32542;52.832;13.816;2022-11-20T06:37:42;5.07;;;3.25;;
17253;SDS011;32542;52.832;13.816;2022-11-20T06:40:45;5.05;;;3.20;;
17253;SDS011;32542;52.832;13.816;2022-11-20T06:43:49;5.45;;;3.40;;
17253;SDS011;32542;52.832;13.816;2022-11-20T06:46:53;3.28;;;2.67;;
17253;SDS011;32542;52.832;13.816;2022-11-20T06:49:56;5.53;;;3.40;;
17253;SDS011;32542;52.832;13.816;2022-11-20T06:53:02;5.63;;;3.00;;
17253;SDS011;32542;52.832;13.816;2022-11-20T06:56:06;4.47;;;3.00;;
17253;SDS011;32542;52.832;13.816;2022-11-20T06:59:09;4.18;;;2.92;;
17253;SDS011;32542;52.832;13.816;2022-11-20T07:02:13;5.65;;;3.00;;
17253;SDS011;32542;52.832;13.816;2022-11-20T07:05:16;4.03;;;3.10;;
17253;SDS011;32542;52.832;13.816;2022-11-20T07:08:20;4.38;;;3.30;;
17253;SDS011;32542;52.832;13.816;2022-11-20T07:11:23;4.80;;;3.20;;
17253;SDS011;32542;52.832;13.816;2022-11-20T07:14:27;4.65;;;2.92;;
17253;SDS011;32542;52.832;13.816;2022-11-20T07:17:31;4.55;;;3.38;;
17253;SDS011;32542;52.832;13.816;2022-11-20T07:20:34;4.63;;;3.20;;
17253;SDS011;32542;52.832;13.816;2022-11-20T07:23:37;5.43;;;3.50;;
17253;SDS011;32542;52.832;13.816;2022-11-20T07:26:40;4.03;;;2.90;;
17253;SDS011;32542;52.832;13.816;2022-11-20T07:29:43;6.30;;;3.22;;
17253;SDS011;32542;52.832;13.816;2022-11-20T07:32:50;4.05;;;3.13;;
17253;SDS011;32542;52.832;13.816;2022-11-20T07:35:53;5.50;;;3.65;;
17253;SDS011;32542;52.832;13.816;2022-11-20T07:38:56;4.90;;;3.25;;
17253;SDS011;32542;52.832;13.816;2022-11-20T07:41:59;4.93;;;3.42;;
17253;SDS011;32542;52.832;13.816;2022-11-20T07:45:02;5.30;;;3.78;;
17253;SDS011;32542;52.832;13.816;2022-11-20T07:48:07;5.90;;;4.30;;
17253;SDS011;32542;52.832;13.816;2022-11-20T07:51:10;6.10;;;4.00;;
17253;SDS011;32542;52.832;13.816;2022-11-20T07:54:14;6.20;;;3.80;;
17253;SDS011;32542;52.832;13.816;2022-11-20T07:57:17;4.80;;;3.83;;
17253;SDS011;32542;52.832;13.816;2022-11-20T08:00:27;6.22;;;4.20;;
17253;SDS011;32542;52.832;13.816;2022-11-20T08:03:31;5.95;;;4.38;;
17253;SDS011;32542;52.832;13.816;2022-11-20T08:06:35;6.90;;;4.82;;
17253;SDS011;32542;52.832;13.816;2022-11-20T08:09:38;4.50;;;3.42;;
17253;SDS011;32542;52.832;13.816;2022-11-20T08:12:44;6.43;;;4.95;;
17253;SDS011;32542;52.832;13.816;2022-11-20T08:16:05;5.97;;;4.43;;
17253;SDS011;32542;52.832;13.816;2022-11-20T08:19:09;6.90;;;4.35;;
17253;SDS011;32542;52.832;13.816;2022-11-20T08:22:12;7.10;;;4.60;;
17253;SDS011;32542;52.832;13.816;2022-11-20T08:25:15;6.70;;;4.38;;
17253;SDS011;32542;52.832;13.816;2022-11-20T08:28:18;5.90;;;4.50;;
17253;SDS011;32542;52.832;13.816;2022-11-20T08:31:23;5.85;;;4.35;;
17253;SDS011;32542;52.832;13.816;2022-11-20T08:34:28;6.07;;;4.28;;
17253;SDS011;32542;52.832;13.816;2022-11-20T08:37:31;6.32;;;4.63;;
17253;SDS011;32542;52.832;13.816;2022-11-20T08:40:34;5.07;;;4.15;;
17253;SDS011;32542;52.832;13.816;2022-11-20T08:43:37;6.55;;;4.70;;
17253;SDS011;32542;52.832;13.816;2022-11-20T08:46:41;7.07;;;4.40;;
17253;SDS011;32542;52.832;13.816;2022-11-20T08:49:46;6.60;;;4.45;;
17253;SDS011;32542;52.832;13.816;2022-11-20T08:52:49;7.60;;;4.68;;
17253;SDS011;32542;52.832;13.816;2022-11-20T08:55:52;9.23;;;4.72;;
17253;SDS011;32542;52.832;13.816;2022-11-20T08:58:55;6.25;;;4.63;;
17253;SDS011;32542;52.832;13.816;2022-11-20T09:02:20;6.30;;;4.43;;
17253;SDS011;32542;52.832;13.816;2022-11-20T09:05:25;5.97;;;4.55;;
17253;SDS011;32542;52.832;13.816;2022-11-20T09:08:28;8.45;;;4.57;;
17253;SDS011;32542;52.832;13.816;2022-11-20T09:11:31;6.40;;;4.43;;
17253;SDS011;32542;52.832;13.816;2022-11-20T09:14:34;6.32;;;4.63;;
17253;SDS011;32542;52.832;13.816;2022-11-20T09:17:37;6.30;;;4.63;;
17253;SDS011;32542;52.832;13.816;2022-11-20T09:20:42;5.57;;;4.35;;
17253;SDS011;32542;52.832;13.816;2022-11-20T09:23:45;6.82;;;4.57;;
17253;SDS011;32542;52.832;13.816;2022-11-20T09:26:48;6.32;;;4.45;;
17253;SDS011;32542;52.832;13.816;2022-11-20T09:29:51;5.57;;;4.20;;
17253;SDS011;32542;52.832;13.816;2022-11-20T09:32:54;7.10;;;4.38;;
17253;SDS011;32542;52.832;13.816;2022-11-20T09:35:58;5.93;;;4.15;;
17253;SDS011;32542;52.832;13.816;2022-11-20T09:39:02;6.90;;;4.00;;
17253;SDS011;32542;52.832;13.816;2022-11-20T09:42:14;9.43;;;5.40;;
17253;SDS011;32542;52.832;13.816;2022-11-20T09:45:37;9.27;;;5.30;;
17253;SDS011;32542;52.832;13.816;2022-11-20T09:52:36;7.25;;;5.05;;
17253;SDS011;32542;52.832;13.816;2022-11-20T09:55:47;5.97;;;4.75;;
17253;SDS011;32542;52.832;13.816;2022-11-20T09:58:51;9.13;;;4.60;;
17253;SDS011;32542;52.832;13.816;2022-11-20T10:01:57;8.60;;;4.55;;
17253;SDS011;32542;52.832;13.816;2022-11-20T10:05:04;10.50;;;4.15;;
17253;SDS011;32542;52.832;13.816;2022-11-20T10:08:16;6.70;;;3.50;;
17253;SDS011;32542;52.832;13.816;2022-11-20T10:11:24;10.48;;;4.13;;
17253;SDS011;32542;52.832;13.816;2022-11-20T10:14:40;10.85;;;3.70;;
17253;SDS011;32542;52.832;13.816;2022-11-20T10:18:08;6.20;;;3.20;;
17253;SDS011;32542;52.832;13.816;2022-11-20T10:21:18;6.70;;;3.63;;
17253;SDS011;32542;52.832;13.816;2022-11-20T10:24:36;5.45;;;3.45;;
17253;SDS011;32542;52.832;13.816;2022-11-20T10:27:54;4.68;;;3.00;;
17253;SDS011;32542;52.832;13.816;2022-11-20T10:31:08;8.48;;;3.33;;
17253;SDS011;32542;52.832;13.816;2022-11-20T10:34:17;5.75;;;3.17;;
17253;SDS011;32542;52.832;13.816;2022-11-20T10:37:25;5.57;;;3.60;;
17253;SDS011;32542;52.832;13.816;2022-11-20T10:40:32;6.07;;;3.30;;
17253;SDS011;32542;52.832;13.816;2022-11-20T10:43:40;7.00;;;3.45;;
17253;SDS011;32542;52.832;13.816;2022-11-20T10:46:44;5.13;;;2.90;;
17253;SDS011;32542;52.832;13.816;2022-11-20T10:49:48;10.70;;;3.25;;
17253;SDS011;32542;52.832;13.816;2022-11-20T10:52:56;10.07;;;3.38;;
17253;SDS011;32542;52.832;13.816;2022-11-20T10:56:10;6.30;;;2.97;;
17253;SDS011;32542;52.832;13.816;2022-11-20T10:59:27;8.27;;;3.08;;
17253;SDS011;32542;52.832;13.816;2022-11-20T11:02:41;7.15;;;3.55;;
17253;SDS011;32542;52.832;13.816;2022-11-20T11:05:48;7.30;;;3.17;;
17253;SDS011;32542;52.832;13.816;2022-11-20T11:08:56;3.95;;;2.80;;
17253;SDS011;32542;52.832;13.816;2022-11-20T11:12:07;8.05;;;3.05;;
17253;SDS011;32542;52.832;13.816;2022-11-20T11:15:12;5.28;;;3.13;;
17253;SDS011;32542;52.832;13.816;2022-11-20T11:18:27;5.70;;;2.90;;
17253;SDS011;32542;52.832;13.816;2022-11-20T11:21:33;6.72;;;3.30;;
17253;SDS011;32542;52.832;13.816;2022-11-20T11:24:37;7.97;;;2.85;;
17253;SDS011;32542;52.832;13.816;2022-11-20T11:27:46;8.50;;;3.67;;
17253;SDS011;32542;52.832;13.816;2022-11-20T11:30:50;6.55;;;3.20;;
17253;SDS011;32542;52.832;13.816;2022-11-20T11:34:03;10.85;;;3.13;;
17253;SDS011;32542;52.832;13.816;2022-11-20T11:37:10;6.70;;;3.35;;
17253;SDS011;32542;52.832;13.816;2022-11-20T11:40:18;7.95;;;3.00;;
17253;SDS011;32542;52.832;13.816;2022-11-20T11:43:28;6.07;;;3.08;;
17253;SDS011;32542;52.832;13.816;2022-11-20T11:46:52;5.88;;;2.85;;
17253;SDS011;32542;52.832;13.816;2022-11-20T11:50:00;8.73;;;3.13;;
17253;SDS011;32542;52.832;13.816;2022-11-20T11:53:07;3.92;;;2.88;;
17253;SDS011;32542;52.832;13.816;2022-11-20T11:56:12;6.03;;;2.95;;
17253;SDS011;32542;52.832;13.816;2022-11-20T11:59:21;5.53;;;3.05;;
17253;SDS011;32542;52.832;13.816;2022-11-20T12:02:32;13.20;;;3.60;;
17253;SDS011;32542;52.832;13.816;2022-11-20T12:05:42;9.88;;;3.10;;
17253;SDS011;32542;52.832;13.816;2022-11-20T12:08:48;6.53;;;3.13;;
17253;SDS011;32542;52.832;13.816;2022-11-20T12:11:56;6.80;;;3.13;;
17253;SDS011;32542;52.832;13.816;2022-11-20T12:15:08;7.20;;;3.55;;
17253;SDS011;32542;52.832;13.816;2022-11-20T12:18:14;6.85;;;2.92;;
17253;SDS011;32542;52.832;13.816;2022-11-20T12:21:20;6.60;;;3.08;;
17253;SDS011;32542;52.832;13.816;2022-11-20T12:24:39;7.82;;;3.15;;
17253;SDS011;32542;52.832;13.816;2022-11-20T12:28:00;7.75;;;3.58;;
17253;SDS011;32542;52.832;13.816;2022-11-20T12:31:26;7.47;;;3.00;;
17253;SDS011;32542;52.832;13.816;2022-11-20T12:34:46;12.80;;;3.38;;
17253;SDS011;32542;52.832;13.816;2022-11-20T12:37:59;8.70;;;3.15;;
17253;SDS011;32542;52.832;13.816;2022-11-20T12:41:21;9.05;;;3.25;;
17253;SDS011;32542;52.832;13.816;2022-11-20T12:44:57;13.95;;;3.40;;
17253;SDS011;32542;52.832;13.816;2022-11-20T12:48:20;11.85;;;3.42;;
17253;SDS011;32542;52.832;13.816;2022-11-20T12:51:39;8.95;;;3.10;;
17253;SDS011;32542;52.832;13.816;2022-11-20T12:58:39;7.55;;;3.25;;
17253;SDS011;32542;52.832;13.816;2022-11-20T13:01:53;12.23;;;3.30;;
17253;SDS011;32542;52.832;13.816;2022-11-20T13:08:27;7.72;;;3.05;;
17253;SDS011;32542;52.832;13.816;2022-11-20T13:11:37;8.30;;;3.35;;
17253;SDS011;32542;52.832;13.816;2022-11-20T13:14:49;9.77;;;3.35;;
17253;SDS011;32542;52.832;13.816;2022-11-20T13:17:57;8.77;;;3.13;;
17253;SDS011;32542;52.832;13.816;2022-11-20T13:21:12;13.23;;;3.47;;
17253;SDS011;32542;52.832;13.816;2022-11-20T13:24:20;10.88;;;3.55;;
17253;SDS011;32542;52.832;13.816;2022-11-20T13:27:27;17.58;;;3.53;;
17253;SDS011;32542;52.832;13.816;2022-11-20T13:30:32;12.32;;;3.42;;
17253;SDS011;32542;52.832;13.816;2022-11-20T13:33:37;10.30;;;3.63;;
17253;SDS011;32542;52.832;13.816;2022-11-20T13:36:49;14.10;;;3.60;;
17253;SDS011;32542;52.832;13.816;2022-11-20T13:40:04;9.63;;;4.32;;
17253;SDS011;32542;52.832;13.816;2022-11-20T13:43:11;19.98;;;4.95;;
17253;SDS011;32542;52.832;13.816;2022-11-20T13:46:22;20.02;;;6.00;;
17253;SDS011;32542;52.832;13.816;2022-11-20T13:49:26;27.75;;;7.03;;
17253;SDS011;32542;52.832;13.816;2022-11-20T13:52:38;55.08;;;12.27;;
17253;SDS011;32542;52.832;13.816;2022-11-20T13:55:47;66.35;;;16.45;;
17253;SDS011;32542;52.832;13.816;2022-11-20T13:58:59;94.57;;;20.67;;
17253;SDS011;32542;52.832;13.816;2022-11-20T14:02:16;86.28;;;20.70;;
17253;SDS011;32542;52.832;13.816;2022-11-20T14:05:22;98.50;;;22.85;;
17253;SDS011;32542;52.832;13.816;2022-11-20T14:08:28;87.82;;;21.73;;
17253;SDS011;32542;52.832;13.816;2022-11-20T14:11:45;77.60;;;19.60;;
17253;SDS011;32542;52.832;13.816;2022-11-20T14:14:50;93.78;;;21.00;;
17253;SDS011;32542;52.832;13.816;2022-11-20T14:17:54;97.38;;;22.13;;
17253;SDS011;32542;52.832;13.816;2022-11-20T14:20:59;93.43;;;22.00;;
17253;SDS011;32542;52.832;13.816;2022-11-20T14:24:04;92.75;;;20.15;;
17253;SDS011;32542;52.832;13.816;2022-11-20T14:27:12;98.72;;;22.08;;
17253;SDS011;32542;52.832;13.816;2022-11-20T14:30:17;92.82;;;20.02;;
17253;SDS011;32542;52.832;13.816;2022-11-20T14:33:22;95.60;;;22.40;;
17253;SDS011;32542;52.832;13.816;2022-11-20T14:36:27;93.72;;;21.40;;
17253;SDS011;32542;52.832;13.816;2022-11-20T14:39:32;58.42;;;15.32;;
17253;SDS011;32542;52.832;13.816;2022-11-20T14:42:37;25.05;;;8.85;;
17253;SDS011;32542;52.832;13.816;2022-11-20T14:45:48;19.73;;;7.43;;
17253;SDS011;32542;52.832;13.816;2022-11-20T14:48:59;22.35;;;8.27;;
17253;SDS011;32542;52.832;13.816;2022-11-20T14:52:10;30.17;;;8.82;;
17253;SDS011;32542;52.832;13.816;2022-11-20T14:55:25;24.75;;;7.68;;
17253;SDS011;32542;52.832;13.816;2022-11-20T14:58:31;30.23;;;8.18;;
17253;SDS011;32542;52.832;13.816;2022-11-20T15:01:35;40.63;;;9.15;;
17253;SDS011;32542;52.832;13.816;2022-11-20T15:04:44;22.65;;;6.75;;
17253;SDS011;32542;52.832;13.816;2022-11-20T15:07:49;25.25;;;6.60;;
17253;SDS011;32542;52.832;13.816;2022-11-20T15:10:55;18.98;;;6.18;;
17253;SDS011;32542;52.832;13.816;2022-11-20T15:14:01;20.00;;;6.88;;
17253;SDS011;32542;52.832;13.816;2022-11-20T15:17:07;22.10;;;6.97;;
17253;SDS011;32542;52.832;13.816;2022-11-20T15:20:13;19.27;;;6.07;;
17253;SDS011;32542;52.832;13.816;2022-11-20T15:23:18;19.42;;;6.43;;
17253;SDS011;32542;52.832;13.816;2022-11-20T15:26:23;17.45;;;6.45;;
17253;SDS011;32542;52.832;13.816;2022-11-20T15:29:29;22.38;;;6.57;;
17253;SDS011;32542;52.832;13.816;2022-11-20T15:32:32;21.98;;;5.72;;
17253;SDS011;32542;52.832;13.816;2022-11-20T15:35:35;18.48;;;6.43;;
17253;SDS011;32542;52.832;13.816;2022-11-20T15:38:38;18.48;;;6.00;;
17253;SDS011;32542;52.832;13.816;2022-11-20T15:41:42;24.27;;;6.63;;
17253;SDS011;32542;52.832;13.816;2022-11-20T15:44:45;19.52;;;6.07;;
17253;SDS011;32542;52.832;13.816;2022-11-20T15:47:48;20.85;;;5.60;;
17253;SDS011;32542;52.832;13.816;2022-11-20T15:50:52;24.33;;;5.90;;
17253;SDS011;32542;52.832;13.816;2022-11-20T15:53:59;22.73;;;6.32;;
17253;SDS011;32542;52.832;13.816;2022-11-20T15:57:04;17.52;;;5.53;;
17253;SDS011;32542;52.832;13.816;2022-11-20T16:00:08;17.70;;;5.38;;
17253;SDS011;32542;52.832;13.816;2022-11-20T16:03:12;16.33;;;5.43;;
17253;SDS011;32542;52.832;13.816;2022-11-20T16:06:15;19.50;;;5.93;;
17253;SDS011;32542;52.832;13.816;2022-11-20T16:09:18;20.05;;;6.13;;
17253;SDS011;32542;52.832;13.816;2022-11-20T16:12:23;17.95;;;5.25;;
17253;SDS011;32542;52.832;13.816;2022-11-20T16:15:40;24.02;;;6.38;;
17253;SDS011;32542;52.832;13.816;2022-11-20T16:18:49;20.08;;;5.38;;
17253;SDS011;32542;52.832;13.816;2022-11-20T16:21:52;18.20;;;5.35;;
17253;SDS011;32542;52.832;13.816;2022-11-20T16:25:03;18.10;;;5.75;;
17253;SDS011;32542;52.832;13.816;2022-11-20T16:28:08;15.25;;;5.47;;
17253;SDS011;32542;52.832;13.816;2022-11-20T16:31:19;14.05;;;5.00;;
17253;SDS011;32542;52.832;13.816;2022-11-20T16:34:22;19.10;;;5.30;;
17253;SDS011;32542;52.832;13.816;2022-11-20T16:37:26;14.85;;;5.60;;
17253;SDS011;32542;52.832;13.816;2022-11-20T16:40:29;20.70;;;5.10;;
17253;SDS011;32542;52.832;13.816;2022-11-20T16:43:33;20.98;;;5.25;;
17253;SDS011;32542;52.832;13.816;2022-11-20T16:46:36;16.10;;;5.13;;
17253;SDS011;32542;52.832;13.816;2022-11-20T16:49:41;15.13;;;5.30;;
17253;SDS011;32542;52.832;13.816;2022-11-20T16:52:44;16.05;;;5.13;;
17253;SDS011;32542;52.832;13.816;2022-11-20T16:55:47;14.95;;;5.18;;
17253;SDS011;32542;52.832;13.816;2022-11-20T16:58:52;16.15;;;4.88;;
17253;SDS011;32542;52.832;13.816;2022-11-20T17:01:57;17.55;;;5.35;;
17253;SDS011;32542;52.832;13.816;2022-11-20T17:05:00;14.38;;;5.13;;
17253;SDS011;32542;52.832;13.816;2022-11-20T17:08:03;14.35;;;5.13;;
17253;SDS011;32542;52.832;13.816;2022-11-20T17:11:06;13.65;;;4.72;;
17253;SDS011;32542;52.832;13.816;2022-11-20T17:14:11;15.57;;;4.93;;
17253;SDS011;32542;52.832;13.816;2022-11-20T17:17:14;12.18;;;5.07;;
17253;SDS011;32542;52.832;13.816;2022-11-20T17:20:17;12.70;;;5.10;;
17253;SDS011;32542;52.832;13.816;2022-11-20T17:23:20;13.65;;;4.63;;
17253;SDS011;32542;52.832;13.816;2022-11-20T17:26:23;13.05;;;5.32;;
17253;SDS011;32542;52.832;13.816;2022-11-20T17:29:30;13.43;;;4.88;;
17253;SDS011;32542;52.832;13.816;2022-11-20T17:32:37;9.75;;;4.78;;
17253;SDS011;32542;52.832;13.816;2022-11-20T17:35:40;16.38;;;4.78;;
17253;SDS011;32542;52.832;13.816;2022-11-20T17:38:43;14.27;;;4.80;;
17253;SDS011;32542;52.832;13.816;2022-11-20T17:41:46;13.85;;;4.85;;
17253;SDS011;32542;52.832;13.816;2022-11-20T17:45:11;11.75;;;4.95;;
17253;SDS011;32542;52.832;13.816;2022-11-20T17:48:14;12.60;;;4.63;;
17253;SDS011;32542;52.832;13.816;2022-11-20T17:51:17;13.80;;;4.75;;
17253;SDS011;32542;52.832;13.816;2022-11-20T17:54:21;11.80;;;4.65;;
17253;SDS011;32542;52.832;13.816;2022-11-20T17:57:25;14.18;;;5.22;;
17253;SDS011;32542;52.832;13.816;2022-11-20T18:00:47;14.57;;;4.90;;
17253;SDS011;32542;52.832;13.816;2022-11-20T18:03:50;14.05;;;4.88;;
17253;SDS011;32542;52.832;13.816;2022-11-20T18:06:53;13.13;;;4.20;;
17253;SDS011;32542;52.832;13.816;2022-11-20T18:09:56;11.38;;;4.40;;
17253;SDS011;32542;52.832;13.816;2022-11-20T18:12:59;16.45;;;4.65;;
17253;SDS011;32542;52.832;13.816;2022-11-20T18:16:06;11.75;;;4.78;;
17253;SDS011;32542;52.832;13.816;2022-11-20T18:19:10;9.32;;;4.60;;
17253;SDS011;32542;52.832;13.816;2022-11-20T18:22:14;12.68;;;4.10;;
17253;SDS011;32542;52.832;13.816;2022-11-20T18:25:18;10.25;;;4.45;;
17253;SDS011;32542;52.832;13.816;2022-11-20T18:28:21;11.05;;;4.72;;
17253;SDS011;32542;52.832;13.816;2022-11-20T18:31:26;9.98;;;4.10;;